createdAt,value
2019-02-23T00:00:01.114Z,8.90
2019-02-23T00:02:29.505Z,7.80
2019-02-23T00:04:57.908Z,7.10
2019-02-23T00:07:26.298Z,5.97
2019-02-23T00:09:54.742Z,7.73
2019-02-23T00:12:23.127Z,8.50
2019-02-23T00:14:51.522Z,6.87
2019-02-23T00:17:19.974Z,8.30
2019-02-23T00:19:48.371Z,8.93
2019-02-23T00:22:16.812Z,7.90
2019-02-23T00:24:45.218Z,7.47
2019-02-23T00:27:13.607Z,7.10
2019-02-23T00:29:41.995Z,8.53
2019-02-23T00:32:10.475Z,12.80
2019-02-23T00:34:38.863Z,6.37
2019-02-23T00:37:07.325Z,9.40
2019-02-23T00:39:35.726Z,7.17
2019-02-23T00:42:04.162Z,6.83
2019-02-23T00:44:32.566Z,5.43
2019-02-23T00:47:00.992Z,8.40
2019-02-23T00:49:36.239Z,7.93
2019-02-23T00:51:59.481Z,7.57
2019-02-23T00:54:27.884Z,8.37
2019-02-23T00:56:56.278Z,4.37
2019-02-23T00:59:24.662Z,7.70
2019-02-23T01:01:53.034Z,9.23
2019-02-23T01:04:21.440Z,5.70
2019-02-23T01:06:49.816Z,7.00
2019-02-23T01:09:18.214Z,6.23
2019-02-23T01:11:46.658Z,6.70
2019-02-23T01:14:15.056Z,5.00
2019-02-23T01:16:43.445Z,5.80
2019-02-23T01:19:11.840Z,8.80
2019-02-23T01:21:40.275Z,11.00
2019-02-23T01:24:08.658Z,7.67
2019-02-23T01:26:37.039Z,5.43
2019-02-23T01:29:05.433Z,5.20
2019-02-23T01:31:33.887Z,4.73
2019-02-23T01:34:02.261Z,5.77
2019-02-23T01:36:31.280Z,6.73
2019-02-23T01:38:59.595Z,4.80
2019-02-23T01:41:27.980Z,6.23
2019-02-23T01:43:56.356Z,5.30
2019-02-23T01:46:24.748Z,5.70
2019-02-23T01:48:53.114Z,5.63
2019-02-23T01:51:21.504Z,5.80
2019-02-23T01:53:49.883Z,5.13
2019-02-23T01:56:18.407Z,3.67
2019-02-23T01:58:46.786Z,4.00
2019-02-23T02:01:15.175Z,4.67
2019-02-23T02:03:43.625Z,5.83
2019-02-23T02:06:12.089Z,5.13
2019-02-23T02:08:40.791Z,5.53
2019-02-23T02:11:09.188Z,5.20
2019-02-23T02:13:37.562Z,6.33
2019-02-23T02:16:06.088Z,6.40
2019-02-23T02:18:34.512Z,4.10
2019-02-23T02:21:02.895Z,5.83
2019-02-23T02:23:31.725Z,3.30
2019-02-23T02:26:00.099Z,6.87
2019-02-23T02:28:28.489Z,4.60
2019-02-23T02:30:56.876Z,8.90
2019-02-23T02:33:25.261Z,4.13
2019-02-23T02:35:53.649Z,7.07
2019-02-23T02:38:22.037Z,5.13
2019-02-23T02:40:50.428Z,5.50
2019-02-23T02:43:18.796Z,4.80
2019-02-23T02:45:47.180Z,3.80
2019-02-23T02:48:15.555Z,4.90
2019-02-23T02:50:43.934Z,6.80
2019-02-23T02:53:12.311Z,5.00
2019-02-23T02:55:40.695Z,4.43
2019-02-23T02:58:09.071Z,7.37
2019-02-23T03:00:37.470Z,7.87
2019-02-23T03:03:05.847Z,5.63
2019-02-23T03:05:34.228Z,5.93
2019-02-23T03:08:02.603Z,6.60
2019-02-23T03:10:31.785Z,5.60
2019-02-23T03:13:00.169Z,3.27
2019-02-23T03:15:28.562Z,7.10
2019-02-23T03:17:56.935Z,5.07
2019-02-23T03:20:36.309Z,3.87
2019-02-23T03:22:55.465Z,4.27
2019-02-23T03:25:23.833Z,4.10
2019-02-23T03:27:52.220Z,3.70
2019-02-23T03:30:20.636Z,4.27
2019-02-23T03:32:49.050Z,4.45
2019-02-23T03:35:17.457Z,3.95
2019-02-23T03:37:45.902Z,6.20
2019-02-23T03:40:14.307Z,5.03
2019-02-23T03:42:42.677Z,5.73
2019-02-23T03:45:11.059Z,3.83
2019-02-23T03:47:39.461Z,5.43
2019-02-23T03:50:08.346Z,5.23
2019-02-23T03:52:36.733Z,4.87
2019-02-23T03:55:05.390Z,4.77
2019-02-23T03:57:33.793Z,5.87
2019-02-23T04:00:02.278Z,4.40
2019-02-23T04:02:30.668Z,3.83
2019-02-23T04:04:59.065Z,4.47
2019-02-23T04:07:27.449Z,4.97
2019-02-23T04:09:55.856Z,6.20
2019-02-23T04:12:24.256Z,3.17
2019-02-23T04:14:52.744Z,4.57
2019-02-23T04:17:21.144Z,3.63
2019-02-23T04:19:49.519Z,7.43
2019-02-23T04:22:17.972Z,5.97
2019-02-23T04:24:46.354Z,5.08
2019-02-23T04:27:14.755Z,3.67
2019-02-23T04:29:43.139Z,3.23
2019-02-23T04:32:11.518Z,4.13
2019-02-23T04:34:39.891Z,3.67
2019-02-23T04:37:08.342Z,3.27
2019-02-23T04:39:36.724Z,5.60
2019-02-23T04:42:05.111Z,4.47
2019-02-23T04:44:33.491Z,5.87
2019-02-23T04:47:02.420Z,4.57
2019-02-23T04:49:30.812Z,5.23
2019-02-23T04:51:59.224Z,3.60
2019-02-23T04:54:27.845Z,5.27
2019-02-23T04:56:56.236Z,4.50
2019-02-23T04:59:24.610Z,3.03
2019-02-23T05:01:53.017Z,4.60
2019-02-23T05:04:21.423Z,3.63
2019-02-23T05:06:49.808Z,3.00
2019-02-23T05:09:18.191Z,3.23
2019-02-23T05:11:46.582Z,3.40
2019-02-23T05:14:14.956Z,5.60
2019-02-23T05:16:43.335Z,3.20
2019-02-23T05:19:11.804Z,4.30
2019-02-23T05:21:40.178Z,3.83
2019-02-23T05:24:08.566Z,2.52
2019-02-23T05:26:36.942Z,3.17
2019-02-23T05:29:05.348Z,2.80
2019-02-23T05:31:33.705Z,4.90
2019-02-23T05:34:02.821Z,3.37
2019-02-23T05:36:31.190Z,2.70
2019-02-23T05:38:59.581Z,3.30
2019-02-23T05:41:28.014Z,4.00
2019-02-23T05:43:56.394Z,3.20
2019-02-23T05:46:24.772Z,4.13
2019-02-23T05:48:53.150Z,3.17
2019-02-23T05:51:21.527Z,3.27
2019-02-23T05:53:49.914Z,4.20
2019-02-23T05:56:18.289Z,3.80
2019-02-23T05:58:46.850Z,2.60
2019-02-23T06:01:15.230Z,4.72
2019-02-23T06:03:43.618Z,3.20
2019-02-23T06:06:11.994Z,3.90
2019-02-23T06:08:40.381Z,3.70
2019-02-23T06:11:08.759Z,5.60
2019-02-23T06:13:37.140Z,3.33
2019-02-23T06:16:05.636Z,3.40
2019-02-23T06:18:34.007Z,4.53
2019-02-23T06:21:03.147Z,4.63
2019-02-23T06:23:31.522Z,5.20
2019-02-23T06:25:59.965Z,4.17
2019-02-23T06:28:28.341Z,2.70
2019-02-23T06:30:56.717Z,3.33
2019-02-23T06:33:25.099Z,3.77
2019-02-23T06:35:53.484Z,3.10
2019-02-23T06:38:21.955Z,3.83
2019-02-23T06:40:53.061Z,2.77
2019-02-23T06:43:21.465Z,5.00
2019-02-23T06:45:49.863Z,3.30
2019-02-23T06:48:19.953Z,3.83
2019-02-23T06:50:48.345Z,3.40
2019-02-23T06:53:16.823Z,3.63
2019-02-23T06:55:45.212Z,4.60
2019-02-23T06:58:13.698Z,4.10
2019-02-23T07:00:42.070Z,4.13
2019-02-23T07:03:10.452Z,2.87
2019-02-23T07:05:38.941Z,3.10
2019-02-23T07:08:07.416Z,4.40
2019-02-23T07:10:35.803Z,4.10
2019-02-23T07:13:04.178Z,4.63
2019-02-23T07:15:33.536Z,4.03
2019-02-23T07:18:01.943Z,3.53
2019-02-23T07:20:30.355Z,3.90
2019-02-23T07:22:58.707Z,2.67
2019-02-23T07:25:27.092Z,3.30
2019-02-23T07:27:55.468Z,3.40
2019-02-23T07:30:23.852Z,3.33
2019-02-23T07:32:52.226Z,3.43
2019-02-23T07:35:20.616Z,2.83
2019-02-23T07:37:49.070Z,6.15
2019-02-23T07:40:17.925Z,5.00
2019-02-23T07:42:46.975Z,3.93
2019-02-23T07:45:15.358Z,6.13
2019-02-23T07:47:43.828Z,3.03
2019-02-23T07:50:14.251Z,3.27
2019-02-23T07:52:42.637Z,4.60
2019-02-23T07:55:11.097Z,2.83
2019-02-23T07:57:39.475Z,2.80
2019-02-23T08:00:12.875Z,4.00
2019-02-23T08:02:41.258Z,4.12
2019-02-23T08:05:10.372Z,6.30
2019-02-23T08:07:39.917Z,2.80
2019-02-23T08:10:10.522Z,5.93
2019-02-23T08:12:38.906Z,3.80
2019-02-23T08:15:10.011Z,3.50
2019-02-23T08:17:38.504Z,4.87
2019-02-23T08:20:09.628Z,4.95
2019-02-23T08:22:38.016Z,5.20
2019-02-23T08:25:09.130Z,3.57
2019-02-23T08:27:37.528Z,4.60
2019-02-23T08:30:09.214Z,4.00
2019-02-23T08:32:37.987Z,5.47
2019-02-23T08:35:07.706Z,8.43
2019-02-23T08:37:36.095Z,3.50
2019-02-23T08:40:07.259Z,4.50
2019-02-23T08:42:35.705Z,4.90
2019-02-23T08:45:04.984Z,6.30
2019-02-23T08:47:34.277Z,6.35
2019-02-23T08:50:02.651Z,6.73
2019-02-23T08:52:31.027Z,3.17
2019-02-23T08:54:59.413Z,3.40
2019-02-23T08:57:27.795Z,5.07
2019-02-23T08:59:56.172Z,3.20
2019-02-23T09:02:24.548Z,2.70
2019-02-23T09:04:52.938Z,3.50
2019-02-23T09:07:21.453Z,3.33
2019-02-23T09:09:49.846Z,4.03
2019-02-23T09:12:18.224Z,3.33
2019-02-23T09:14:46.696Z,3.00
2019-02-23T09:17:15.080Z,2.90
2019-02-23T09:19:43.464Z,7.17
2019-02-23T09:22:11.897Z,5.83
2019-02-23T09:24:40.376Z,5.90
2019-02-23T09:27:08.761Z,3.35
2019-02-23T09:29:37.144Z,2.80
2019-02-23T09:32:05.531Z,3.77
2019-02-23T09:34:34.634Z,4.30
2019-02-23T09:37:03.087Z,4.07
2019-02-23T09:39:31.467Z,3.50
2019-02-23T09:42:07.216Z,3.07
2019-02-23T09:44:29.947Z,3.50
2019-02-23T09:46:58.325Z,3.07
2019-02-23T09:49:26.706Z,3.60
2019-02-23T09:51:55.078Z,2.90
2019-02-23T09:54:23.466Z,4.30
2019-02-23T09:56:51.863Z,3.15
2019-02-23T09:59:20.239Z,3.27
2019-02-23T10:01:48.614Z,3.90
2019-02-23T10:04:17.003Z,3.03
2019-02-23T10:06:45.387Z,7.23
2019-02-23T10:09:13.772Z,2.87
2019-02-23T10:11:42.169Z,10.40
2019-02-23T10:14:10.653Z,9.50
2019-02-23T10:16:39.032Z,9.57
2019-02-23T10:19:07.467Z,11.93
2019-02-23T10:21:35.859Z,10.30
2019-02-23T10:24:04.908Z,10.80
2019-02-23T10:26:33.299Z,8.70
2019-02-23T10:29:01.676Z,9.80
2019-02-23T10:31:30.089Z,9.30
2019-02-23T10:33:58.468Z,9.93
2019-02-23T10:36:26.856Z,8.83
2019-02-23T10:41:16.042Z,12.17
2019-02-23T10:43:44.423Z,9.47
2019-02-23T10:46:12.803Z,8.17
2019-02-23T10:48:41.175Z,6.70
2019-02-23T10:51:09.564Z,6.57
2019-02-23T10:53:37.944Z,7.53
2019-02-23T10:56:06.331Z,7.30
2019-02-23T10:58:35.133Z,6.10
2019-02-23T11:01:03.689Z,5.17
2019-02-23T11:03:32.066Z,5.80
2019-02-23T11:06:00.526Z,7.73
2019-02-23T11:08:28.907Z,5.80
2019-02-23T11:10:57.299Z,7.93
2019-02-23T11:13:25.684Z,6.37
2019-02-23T11:15:54.076Z,6.27
2019-02-23T11:18:22.456Z,6.75
2019-02-23T11:20:50.891Z,10.53
2019-02-23T11:23:19.332Z,10.47
2019-02-23T11:25:47.755Z,6.75
2019-02-23T11:28:16.246Z,7.27
2019-02-23T11:30:44.622Z,9.00
2019-02-23T11:33:13.011Z,8.40
2019-02-23T11:35:41.495Z,8.53
2019-02-23T11:38:09.878Z,6.33
2019-02-23T11:40:38.255Z,6.47
2019-02-23T11:43:06.649Z,18.97
2019-02-23T11:45:35.440Z,7.33
2019-02-23T11:48:03.837Z,14.53
2019-02-23T11:50:32.220Z,9.00
2019-02-23T11:53:00.616Z,12.67
2019-02-23T11:55:28.992Z,6.30
2019-02-23T11:57:57.408Z,7.37
2019-02-23T12:00:25.791Z,9.57
2019-02-23T12:02:54.179Z,9.60
2019-02-23T12:05:22.563Z,5.77
2019-02-23T12:07:50.943Z,5.70
2019-02-23T12:10:19.319Z,9.33
2019-02-23T12:12:47.707Z,5.90
2019-02-23T12:15:16.162Z,11.53
2019-02-23T12:17:44.549Z,9.23
2019-02-23T12:20:12.991Z,8.37
2019-02-23T12:22:41.381Z,7.65
2019-02-23T12:25:12.961Z,7.20
2019-02-23T12:27:40.147Z,8.23
2019-02-23T12:30:10.901Z,6.03
2019-02-23T12:32:39.308Z,6.50
2019-02-23T12:35:10.099Z,10.67
2019-02-23T12:37:38.496Z,6.33
2019-02-23T12:40:08.412Z,10.33
2019-02-23T12:42:36.863Z,8.10
2019-02-23T12:45:11.235Z,5.60
2019-02-23T12:47:39.631Z,17.77
2019-02-23T12:50:11.062Z,10.30
2019-02-23T12:52:39.448Z,7.60
2019-02-23T12:55:11.748Z,6.43
2019-02-23T12:57:40.139Z,8.80
2019-02-23T13:00:12.104Z,7.00
2019-02-23T13:02:40.564Z,4.80
2019-02-23T13:05:09.320Z,10.90
2019-02-23T13:07:37.706Z,6.93
2019-02-23T13:10:11.348Z,8.37
2019-02-23T13:12:54.290Z,8.93
2019-02-23T13:15:31.507Z,6.97
2019-02-23T13:18:28.982Z,6.13
2019-02-23T13:21:19.869Z,8.30
2019-02-23T13:24:14.731Z,8.33
2019-02-23T13:26:51.996Z,7.10
2019-02-23T13:29:29.410Z,5.53
2019-02-23T13:32:00.895Z,10.00
2019-02-23T13:34:56.708Z,16.27
2019-02-23T13:37:30.849Z,9.57
2019-02-23T13:40:11.244Z,8.63
2019-02-23T13:43:05.373Z,11.03
2019-02-23T13:45:58.236Z,10.37
2019-02-23T13:48:32.650Z,9.10
2019-02-23T13:51:13.250Z,11.70
2019-02-23T13:53:53.142Z,7.50
2019-02-23T13:56:49.768Z,8.27
2019-02-23T13:59:43.545Z,9.27
2019-02-23T14:02:31.256Z,10.95
2019-02-23T14:05:17.829Z,7.77
2019-02-23T14:08:12.235Z,9.33
2019-02-23T14:11:06.191Z,9.27
2019-02-23T14:13:37.632Z,9.67
2019-02-23T14:16:24.546Z,8.00
2019-02-23T14:18:55.977Z,12.80
2019-02-23T14:21:45.523Z,10.40
2019-02-23T14:24:55.867Z,17.20
2019-02-23T14:27:48.478Z,12.20
2019-02-23T14:30:22.805Z,11.50
2019-02-23T14:33:06.389Z,15.00
2019-02-23T14:35:37.817Z,9.80
2019-02-23T14:38:29.014Z,10.83
2019-02-23T14:41:09.154Z,11.37
2019-02-23T14:43:58.788Z,12.50
2019-02-23T14:46:38.809Z,13.10
2019-02-23T14:49:21.933Z,13.20
2019-02-23T14:51:53.425Z,10.28
2019-02-23T14:54:39.910Z,12.50
2019-02-23T14:57:20.103Z,7.77
2019-02-23T14:59:51.524Z,14.70
2019-02-23T15:02:42.569Z,7.63
2019-02-23T15:05:29.279Z,11.57
2019-02-23T15:08:33.642Z,7.17
2019-02-23T15:11:21.458Z,8.57
2019-02-23T15:14:10.805Z,9.33
2019-02-23T15:17:04.887Z,7.50
2019-02-23T15:20:07.908Z,8.90
2019-02-23T15:22:57.977Z,8.90
2019-02-23T15:25:35.368Z,6.33
2019-02-23T15:28:36.010Z,6.23
2019-02-23T15:31:15.391Z,9.77
2019-02-23T15:33:55.671Z,12.53
2019-02-23T15:36:39.248Z,7.57
2019-02-23T15:39:16.630Z,10.23
2019-02-23T15:42:06.248Z,16.15
2019-02-23T15:44:46.472Z,8.00
2019-02-23T15:47:34.859Z,6.70
2019-02-23T15:50:13.963Z,11.43
2019-02-23T15:52:33.552Z,7.90
2019-02-23T15:55:01.905Z,11.70
2019-02-23T15:57:30.289Z,12.93
2019-02-23T15:59:58.689Z,6.70
2019-02-23T16:02:27.065Z,6.60
2019-02-23T16:04:55.441Z,6.03
2019-02-23T16:07:23.826Z,8.20
2019-02-23T16:09:52.271Z,7.37
2019-02-23T16:12:20.634Z,6.60
2019-02-23T16:14:49.000Z,7.73
2019-02-23T16:17:17.388Z,6.47
2019-02-23T16:19:45.764Z,6.27
2019-02-23T16:22:14.146Z,6.80
2019-02-23T16:24:42.528Z,11.53
2019-02-23T16:27:10.915Z,7.47
2019-02-23T16:29:39.302Z,11.80
2019-02-23T16:32:07.688Z,5.57
2019-02-23T16:34:36.063Z,7.90
2019-02-23T16:37:04.454Z,7.97
2019-02-23T16:39:32.884Z,8.80
2019-02-23T16:42:01.272Z,5.93
2019-02-23T16:44:29.657Z,7.90
2019-02-23T16:46:58.039Z,7.93
2019-02-23T16:49:26.421Z,7.23
2019-02-23T16:51:54.802Z,7.53
2019-02-23T16:54:23.269Z,8.40
2019-02-23T16:56:51.647Z,9.83
2019-02-23T16:59:20.029Z,6.85
2019-02-23T17:01:48.403Z,8.90
2019-02-23T17:04:16.890Z,11.55
2019-02-23T17:06:45.353Z,11.60
2019-02-23T17:09:13.659Z,8.10
2019-02-23T17:11:42.038Z,6.50
2019-02-23T17:14:10.419Z,8.03
2019-02-23T17:16:38.798Z,6.60
2019-02-23T17:19:07.940Z,7.10
2019-02-23T17:21:36.340Z,7.80
2019-02-23T17:24:04.835Z,5.40
2019-02-23T17:26:36.532Z,10.33
2019-02-23T17:29:03.326Z,6.07
2019-02-23T17:31:31.723Z,11.30
2019-02-23T17:34:00.199Z,6.77
2019-02-23T17:36:28.588Z,8.20
2019-02-23T17:38:56.966Z,7.20
2019-02-23T17:41:25.375Z,8.47
2019-02-23T17:43:54.208Z,10.13
2019-02-23T17:46:22.675Z,9.30
2019-02-23T17:48:51.061Z,8.20
2019-02-23T17:51:19.444Z,7.00
2019-02-23T17:53:47.827Z,6.57
2019-02-23T17:56:16.202Z,7.07
2019-02-23T17:58:44.593Z,9.63
2019-02-23T18:01:12.967Z,8.20
2019-02-23T18:03:41.351Z,6.77
2019-02-23T18:06:09.726Z,4.93
2019-02-23T18:08:38.243Z,4.77
2019-02-23T18:11:06.619Z,5.07
2019-02-23T18:13:35.073Z,6.93
2019-02-23T18:16:03.456Z,12.43
2019-02-23T18:18:31.844Z,5.80
2019-02-23T18:21:00.297Z,7.10
2019-02-23T18:23:28.711Z,6.20
2019-02-23T18:25:57.088Z,8.87
2019-02-23T18:28:25.471Z,6.40
2019-02-23T18:30:53.846Z,6.00
2019-02-23T18:33:22.226Z,9.30
2019-02-23T18:35:50.614Z,7.35
2019-02-23T18:38:18.998Z,5.90
2019-02-23T18:40:47.386Z,9.10
2019-02-23T18:43:15.761Z,11.37
2019-02-23T18:45:47.341Z,9.33
2019-02-23T18:48:14.256Z,12.15
2019-02-23T18:50:42.660Z,11.18
2019-02-23T18:53:11.061Z,13.73
2019-02-23T18:55:41.307Z,11.10
2019-02-23T18:58:09.689Z,18.90
2019-02-23T19:00:38.646Z,20.30
2019-02-23T19:03:07.024Z,26.87
2019-02-23T19:05:35.431Z,18.17
2019-02-23T19:08:03.895Z,14.93
2019-02-23T19:10:32.383Z,18.13
2019-02-23T19:13:00.759Z,13.43
2019-02-23T19:15:29.146Z,9.23
2019-02-23T19:17:57.548Z,13.50
2019-02-23T19:20:25.937Z,16.37
2019-02-23T19:22:54.316Z,13.83
2019-02-23T19:25:22.708Z,17.20
2019-02-23T19:27:51.160Z,16.40
2019-02-23T19:30:19.822Z,12.30
2019-02-23T19:32:48.208Z,17.17
2019-02-23T19:35:16.603Z,15.00
2019-02-23T19:37:45.021Z,19.87
2019-02-23T19:40:13.412Z,23.47
2019-02-23T19:42:41.793Z,12.40
2019-02-23T19:45:11.748Z,13.50
2019-02-23T19:47:41.925Z,12.37
2019-02-23T19:50:13.549Z,14.10
2019-02-23T19:52:41.941Z,16.73
2019-02-23T19:55:13.673Z,16.40
2019-02-23T19:57:42.053Z,18.73
2019-02-23T20:00:10.717Z,12.90
2019-02-23T20:02:39.268Z,11.00
2019-02-23T20:05:10.106Z,14.47
2019-02-23T20:07:39.205Z,19.93
2019-02-23T20:10:09.837Z,14.73
2019-02-23T20:12:39.201Z,14.13
2019-02-23T20:15:09.727Z,16.57
2019-02-23T20:17:38.105Z,10.33
2019-02-23T20:20:07.540Z,19.00
2019-02-23T20:22:35.939Z,16.07
2019-02-23T20:25:05.834Z,11.33
2019-02-23T20:27:34.228Z,14.77
2019-02-23T20:30:02.717Z,12.90
2019-02-23T20:32:31.738Z,14.77
2019-02-23T20:35:00.263Z,14.30
2019-02-23T20:37:28.583Z,12.07
2019-02-23T20:39:56.973Z,16.87
2019-02-23T20:42:25.391Z,14.53
2019-02-23T20:44:53.807Z,14.57
2019-02-23T20:47:22.206Z,18.23
2019-02-23T20:49:50.677Z,7.60
2019-02-23T20:52:19.152Z,7.90
2019-02-23T20:54:47.530Z,11.67
2019-02-23T20:57:16.010Z,9.60
2019-02-23T20:59:44.387Z,13.80
2019-02-23T21:02:12.847Z,13.40
2019-02-23T21:04:41.299Z,15.40
2019-02-23T21:07:09.687Z,17.67
2019-02-23T21:09:38.135Z,9.30
2019-02-23T21:12:06.553Z,10.80
2019-02-23T21:14:34.918Z,9.67
2019-02-23T21:17:03.312Z,10.40
2019-02-23T21:19:31.696Z,10.00
2019-02-23T21:22:00.085Z,11.40
2019-02-23T21:24:28.465Z,20.33
2019-02-23T21:26:56.846Z,8.77
2019-02-23T21:29:25.427Z,12.10
2019-02-23T21:31:54.843Z,9.00
2019-02-23T21:34:23.225Z,10.63
2019-02-23T21:36:51.617Z,9.00
2019-02-23T21:39:19.993Z,6.80
2019-02-23T21:41:48.380Z,10.90
2019-02-23T21:44:16.756Z,7.73
2019-02-23T21:46:45.226Z,10.40
2019-02-23T21:49:13.603Z,14.33
2019-02-23T21:51:42.088Z,13.03
2019-02-23T21:54:11.056Z,12.90
2019-02-23T21:56:39.976Z,9.97
2019-02-23T21:59:08.442Z,12.73
2019-02-23T22:01:36.934Z,8.67
2019-02-23T22:04:05.473Z,8.13
2019-02-23T22:06:33.906Z,8.20
2019-02-23T22:09:02.295Z,11.47
2019-02-23T22:11:30.664Z,8.40
2019-02-23T22:13:59.111Z,9.40
2019-02-23T22:16:27.508Z,11.70
2019-02-23T22:18:55.975Z,10.43
2019-02-23T22:21:24.390Z,12.17
2019-02-23T22:23:52.773Z,9.40
2019-02-23T22:26:21.175Z,9.60
2019-02-23T22:28:49.557Z,8.83
2019-02-23T22:31:17.940Z,8.53
2019-02-23T22:33:46.481Z,8.30
2019-02-23T22:36:14.945Z,7.42
2019-02-23T22:38:43.413Z,8.00
2019-02-23T22:41:11.807Z,13.67
2019-02-23T22:43:40.295Z,9.97
2019-02-23T22:46:08.678Z,8.60
2019-02-23T22:48:37.050Z,9.90
2019-02-23T22:51:05.440Z,11.60
2019-02-23T22:53:33.815Z,7.83
2019-02-23T22:56:02.205Z,8.53
2019-02-23T22:58:30.599Z,12.77
2019-02-23T23:01:00.892Z,8.73
2019-02-23T23:03:29.268Z,8.17
2019-02-23T23:05:57.644Z,9.40
2019-02-23T23:08:26.027Z,8.30
2019-02-23T23:10:54.407Z,9.57
2019-02-23T23:13:22.873Z,10.47
2019-02-23T23:15:51.341Z,6.63
2019-02-23T23:18:19.728Z,8.83
2019-02-23T23:20:48.118Z,10.37
2019-02-23T23:23:16.504Z,9.07
2019-02-23T23:25:44.963Z,13.07
2019-02-23T23:28:13.351Z,12.07
2019-02-23T23:30:41.822Z,9.37
2019-02-23T23:33:10.654Z,5.97
2019-02-23T23:35:39.029Z,6.80
2019-02-23T23:38:07.479Z,7.67
2019-02-23T23:40:35.848Z,12.07
2019-02-23T23:43:04.232Z,10.10
2019-02-23T23:45:32.623Z,9.40
2019-02-23T23:48:01.011Z,12.20
2019-02-23T23:50:29.387Z,9.73
2019-02-23T23:52:57.850Z,6.90
2019-02-23T23:55:26.318Z,6.92
2019-02-23T23:57:58.241Z,6.20
